Time;durP1;ratioP1;P1;durP2;ratioP2;P2;SDS_P1;SDS_P2;PMS_P1;PMS_P2;Temp;Humidity;BMP_temperature;BMP_pressure;BME280_temperature;BME280_humidity;BME280_pressure;Samples;Min_cycle;Max_cycle;Signal;HPM_P1;HPM_P2
2023/10/20 00:01:47;;;;;;;9.68;6.85;;;;;;;;;;5101357;28;20035;-90
2023/10/20 00:04:13;;;;;;;8.38;6.60;;;;;;;;;;5075931;28;20415;-91
2023/10/20 00:06:39;;;;;;;9.80;7.30;;;;;;;;;;5075184;28;20036;-92
2023/10/20 00:09:08;;;;;;;8.38;7.18;;;;;;;;;;5074780;28;20052;-82
2023/10/20 00:11:36;;;;;;;8.75;6.63;;;;;;;;;;5074715;28;20161;-86
2023/10/20 00:14:02;;;;;;;10.30;7.18;;;;;;;;;;5102111;28;20094;-86
2023/10/20 00:16:29;;;;;;;8.80;7.07;;;;;;;;;;5106063;27;20046;-84
2023/10/20 00:18:56;;;;;;;11.50;8.48;;;;;;;;;;5121195;27;20046;-86
2023/10/20 00:21:23;;;;;;;10.00;7.28;;;;;;;;;;5074755;28;20484;-85
2023/10/20 00:23:50;;;;;;;10.50;7.05;;;;;;;;;;5074699;28;20090;-83
2023/10/20 00:26:16;;;;;;;10.70;7.50;;;;;;;;;;5071775;28;20081;-86
2023/10/20 00:28:42;;;;;;;12.25;8.07;;;;;;;;;;5077966;27;20043;-83
2023/10/20 00:31:08;;;;;;;14.45;8.60;;;;;;;;;;5095333;28;20494;-91
2023/10/20 00:33:34;;;;;;;10.75;8.02;;;;;;;;;;5113229;28;20043;-89
2023/10/20 00:36:00;;;;;;;10.93;7.07;;;;;;;;;;5096850;28;20055;-91
2023/10/20 00:38:27;;;;;;;12.15;7.60;;;;;;;;;;5114085;28;20126;-90
2023/10/20 00:40:53;;;;;;;12.90;7.18;;;;;;;;;;5098029;28;20054;-90
2023/10/20 00:43:19;;;;;;;10.75;7.70;;;;;;;;;;5113534;28;20070;-90
2023/10/20 00:45:46;;;;;;;10.50;7.60;;;;;;;;;;5095301;28;20087;-91
2023/10/20 00:48:13;;;;;;;10.73;7.07;;;;;;;;;;5092799;28;20043;-90
2023/10/20 00:50:39;;;;;;;12.43;8.18;;;;;;;;;;5101719;27;20047;-90
2023/10/20 00:53:07;;;;;;;11.18;8.13;;;;;;;;;;5115057;27;20070;-91
2023/10/20 00:55:34;;;;;;;10.40;7.57;;;;;;;;;;5114984;27;20038;-90
2023/10/20 00:58:00;;;;;;;13.70;7.97;;;;;;;;;;5132126;27;20415;-91
2023/10/20 01:00:26;;;;;;;11.60;8.27;;;;;;;;;;5100997;28;20548;-86
2023/10/20 01:02:53;;;;;;;11.55;7.88;;;;;;;;;;5115933;28;20495;-86
2023/10/20 01:05:22;;;;;;;13.25;7.82;;;;;;;;;;5114965;28;20046;-86
2023/10/20 01:07:48;;;;;;;11.55;8.13;;;;;;;;;;5109831;28;20047;-86
2023/10/20 01:10:14;;;;;;;9.75;7.63;;;;;;;;;;5112940;28;20138;-91
2023/10/20 01:12:41;;;;;;;16.25;8.55;;;;;;;;;;5095101;28;20050;-90
2023/10/20 01:15:07;;;;;;;13.90;7.78;;;;;;;;;;5111521;28;20048;-89
2023/10/20 01:17:34;;;;;;;14.25;8.50;;;;;;;;;;5094034;28;20047;-90
2023/10/20 01:20:04;;;;;;;11.85;8.27;;;;;;;;;;5121441;28;20035;-86
2023/10/20 01:22:30;;;;;;;13.07;8.63;;;;;;;;;;5131250;28;20398;-85
2023/10/20 01:24:56;;;;;;;14.52;7.85;;;;;;;;;;5131588;28;20039;-87
2023/10/20 01:27:22;;;;;;;10.30;7.53;;;;;;;;;;5098749;28;20043;-85
2023/10/20 01:29:48;;;;;;;13.02;8.63;;;;;;;;;;5110985;28;20098;-86
2023/10/20 01:32:15;;;;;;;13.18;9.63;;;;;;;;;;5113502;28;20421;-87
2023/10/20 01:34:41;;;;;;;14.57;8.52;;;;;;;;;;5111165;28;20396;-87
2023/10/20 01:37:11;;;;;;;13.15;8.32;;;;;;;;;;5094422;28;20499;-86
2023/10/20 01:39:38;;;;;;;15.20;9.45;;;;;;;;;;5093150;28;20039;-86
2023/10/20 01:42:04;;;;;;;18.10;9.23;;;;;;;;;;5114761;28;20040;-86
2023/10/20 01:44:30;;;;;;;15.32;9.25;;;;;;;;;;5115547;27;20112;-86
2023/10/20 01:46:56;;;;;;;21.35;10.23;;;;;;;;;;5116898;27;20506;-85
2023/10/20 01:49:22;;;;;;;15.00;9.68;;;;;;;;;;5124765;27;20065;-86
2023/10/20 01:51:48;;;;;;;18.88;10.02;;;;;;;;;;5080924;28;20128;-85
2023/10/20 01:54:14;;;;;;;16.73;9.93;;;;;;;;;;5097936;28;20395;-86
2023/10/20 01:56:40;;;;;;;19.42;10.20;;;;;;;;;;5098350;27;20629;-86
2023/10/20 01:59:06;;;;;;;20.55;10.50;;;;;;;;;;5118011;27;20134;-86
2023/10/20 02:01:33;;;;;;;17.27;9.13;;;;;;;;;;5087798;28;20032;-85
2023/10/20 02:03:59;;;;;;;18.42;10.85;;;;;;;;;;5077370;28;20051;-86
2023/10/20 02:06:26;;;;;;;19.42;11.32;;;;;;;;;;5117181;27;20031;-83
2023/10/20 02:08:52;;;;;;;19.63;10.40;;;;;;;;;;5093973;28;20416;-82
2023/10/20 02:11:18;;;;;;;17.13;9.02;;;;;;;;;;5078365;28;20039;-84
2023/10/20 02:13:44;;;;;;;16.27;10.68;;;;;;;;;;5104902;28;20119;-85
2023/10/20 02:16:10;;;;;;;16.92;9.98;;;;;;;;;;5080390;28;20051;-83
2023/10/20 02:18:36;;;;;;;19.13;10.63;;;;;;;;;;5114191;28;20517;-85
2023/10/20 02:21:07;;;;;;;20.15;10.63;;;;;;;;;;5114610;27;20391;-86
2023/10/20 02:23:40;;;;;;;20.40;10.23;;;;;;;;;;5115245;27;20071;-86
2023/10/20 02:26:09;;;;;;;16.00;10.98;;;8.10;91.40;;;;;;5112796;28;20042;-86
2023/10/20 02:28:36;;;;;;;15.55;9.90;;;8.10;91.40;;;;;;5113512;27;20055;-86
2023/10/20 02:31:11;;;;;;;15.48;10.82;;;8.10;92.50;;;;;;5076538;28;20535;-86
2023/10/20 02:33:37;;;;;;;15.73;11.50;;;;;;;;;;5091824;27;20395;-87
2023/10/20 02:36:04;;;;;;;16.90;10.80;;;;;;;;;;5134366;27;20055;-86
2023/10/20 02:38:30;;;;;;;19.05;10.57;;;;;;;;;;5114715;27;20055;-82
2023/10/20 02:40:56;;;;;;;16.20;10.90;;;;;;;;;;5113723;28;20044;-84
2023/10/20 02:43:23;;;;;;;18.42;10.02;;;;;;;;;;5096598;28;20051;-87
2023/10/20 02:45:51;;;;;;;20.50;10.57;;;;;;;;;;5120497;27;20493;-86
2023/10/20 02:48:17;;;;;;;20.98;11.52;;;;;;;;;;5100066;27;20047;-85
2023/10/20 02:50:43;;;;;;;24.33;10.13;;;;;;;;;;5095462;28;20527;-87
2023/10/20 02:53:09;;;;;;;21.55;10.73;;;;;;;;;;5113435;28;20043;-83
2023/10/20 02:55:37;;;;;;;16.60;10.32;;;;;;;;;;5079784;28;20066;-84
2023/10/20 02:58:03;;;;;;;17.52;11.43;;;;;;;;;;5090810;27;20106;-84
2023/10/20 03:00:29;;;;;;;21.35;11.65;;;;;;;;;;5124620;27;20396;-86
2023/10/20 03:02:55;;;;;;;20.58;11.45;;;;;;;;;;5095656;28;20530;-87
2023/10/20 03:05:22;;;;;;;22.30;12.13;;;;;;;;;;5096748;28;20050;-84
2023/10/20 03:07:48;;;;;;;16.05;11.10;;;;;;;;;;5096818;28;20105;-87
2023/10/20 03:10:14;;;;;;;20.10;11.70;;;;;;;;;;5077237;28;20108;-87
2023/10/20 03:12:40;;;;;;;20.60;10.73;;;;;;;;;;5094665;28;20047;-86
2023/10/20 03:15:08;;;;;;;21.95;10.93;;;;;;;;;;5113260;28;20050;-86
2023/10/20 03:17:34;;;;;;;16.60;10.98;;;;;;;;;;5096456;28;20134;-85
2023/10/20 03:20:00;;;;;;;18.45;11.70;;;;;;;;;;5107830;27;20449;-85
2023/10/20 03:22:27;;;;;;;18.55;11.43;;;;;;;;;;5116685;27;20503;-87
2023/10/20 03:24:54;;;;;;;22.63;11.40;;;;;;;;;;5093693;28;20043;-86
2023/10/20 03:27:20;;;;;;;23.23;12.90;;;;;;;;;;5133260;27;20035;-84
2023/10/20 03:29:46;;;;;;;20.95;12.45;;;;;;;;;;5133303;27;20043;-89
2023/10/20 03:32:13;;;;;;;17.70;11.18;;;;;;;;;;5116885;27;20039;-87
2023/10/20 03:34:40;;;;;;;16.50;9.68;;;;;;;;;;5131035;27;20039;-84
2023/10/20 03:37:06;;;;;;;19.83;10.88;;;;;;;;;;5095306;28;20091;-85
2023/10/20 03:39:33;;;;;;;17.55;12.13;;;;;;;;;;5095850;28;20047;-87
2023/10/20 03:42:01;;;;;;;19.98;11.18;;;;;;;;;;5095959;28;20050;-85
2023/10/20 03:44:27;;;;;;;20.20;11.57;;;;;;;;;;5096144;28;20552;-85
2023/10/20 03:46:56;;;;;;;18.27;11.68;;;;;;;;;;5098862;27;20039;-87
2023/10/20 03:49:23;;;;;;;18.58;10.85;;;;;;;;;;5101141;28;20384;-85
2023/10/20 03:51:51;;;;;;;16.60;10.32;;;;;;;;;;5095215;28;20040;-86
2023/10/20 03:54:25;;;;;;;19.02;11.00;;;;;;;;;;5079120;28;20044;-86
2023/10/20 03:56:51;;;;;;;23.00;12.88;;;;;;;;;;5095643;28;20493;-82
2023/10/20 03:59:17;;;;;;;16.88;10.00;;;;;;;;;;5101644;27;20046;-86
2023/10/20 04:01:43;;;;;;;18.73;10.80;;;;;;;;;;5083133;28;20408;-85
2023/10/20 04:04:11;;;;;;;20.65;11.05;;;;;;;;;;5112234;28;20051;-86
2023/10/20 04:06:38;;;;;;;18.00;10.77;;;;;;;;;;5112012;27;20047;-86
2023/10/20 04:09:14;;;;;;;18.23;10.10;;;;;;;;;;5094893;27;20043;-86
2023/10/20 04:11:40;;;;;;;15.20;9.60;;;;;;;;;;5100757;28;20040;-83
2023/10/20 04:14:06;;;;;;;17.05;10.23;;;;;;;;;;5095033;28;20040;-85
2023/10/20 04:16:39;;;;;;;13.45;8.82;;;;;;;;;;5094926;28;20044;-86
2023/10/20 04:19:06;;;;;;;14.32;10.30;;;;;;;;;;5112369;27;20212;-86
2023/10/20 04:21:32;;;;;;;17.08;9.55;;;;;;;;;;5078499;28;20090;-82
2023/10/20 04:23:59;;;;;;;15.48;9.77;;;;;;;;;;5110870;28;20043;-85
2023/10/20 04:26:26;;;;;;;20.20;10.55;;;;;;;;;;5078452;28;20056;-86
2023/10/20 04:59:22;;;;;;;12.43;8.90;;;;;;;;;;5089952;27;20047;-90
2023/10/20 05:01:21;;;;;;;7.57;6.18;;;;;;;;;;5087226;28;20046;-88
2023/10/20 05:03:52;;;;;;;9.88;7.25;;;;;;;;;;5111462;28;20427;-88
2023/10/20 05:06:31;;;;;;;10.45;6.95;;;;;;;;;;5094299;28;20134;-86
2023/10/20 05:08:58;;;;;;;10.40;7.50;;;;;;;;;;5093313;28;20048;-88
2023/10/20 05:11:24;;;;;;;13.38;7.28;;;;;;;;;;5093947;28;20048;-83
2023/10/20 05:13:50;;;;;;;7.47;6.43;;;;;;;;;;5103653;27;20039;-82
2023/10/20 05:16:16;;;;;;;10.35;6.68;;;;;;;;;;5108097;28;20032;-89
2023/10/20 05:18:43;;;;;;;11.27;7.40;;;;;;;;;;5105848;27;20039;-88
2023/10/20 05:21:12;;;;;;;7.10;5.70;;;;;;;;;;5102711;27;20070;-89
2023/10/20 05:23:38;;;;;;;8.90;6.40;;;;;;;;;;5118591;27;20487;-89
2023/10/20 05:26:04;;;;;;;8.80;5.55;;;;;;;;;;5107511;28;20129;-82
2023/10/20 05:28:31;;;;;;;8.05;6.18;;;;;;;;;;5111510;28;20044;-83
2023/10/20 05:30:57;;;;;;;7.20;5.68;;;;;;;;;;5098119;28;20500;-87
2023/10/20 05:33:27;;;;;;;7.45;5.90;;;;;;;;;;5119129;27;20437;-90
2023/10/20 05:35:53;;;;;;;11.45;6.03;;;;;;;;;;5137368;27;20047;-88
2023/10/20 05:38:20;;;;;;;10.77;6.40;;;;;;;;;;5106746;28;20135;-89
2023/10/20 05:40:56;;;;;;;10.13;5.75;;;;;;;;;;5080728;28;20051;-90
2023/10/20 05:43:23;;;;;;;6.82;5.20;;;;;;;;;;5120182;27;20045;-89
2023/10/20 05:45:49;;;;;;;9.00;5.82;;;;;;;;;;5118222;27;20383;-89
2023/10/20 05:48:15;;;;;;;15.57;6.63;;;;;;;;;;5118125;27;20047;-88
2023/10/20 05:50:41;;;;;;;10.55;5.50;;;;;;;;;;5113900;28;20094;-88
2023/10/20 05:53:07;;;;;;;8.98;5.32;;;;;;;;;;5075873;28;20385;-89
2023/10/20 05:55:34;;;;;;;7.88;5.80;;;;;;;;;;5086149;27;20035;-89
2023/10/20 05:58:00;;;;;;;8.02;5.90;;;;;;;;;;5135201;27;20100;-87
2023/10/20 06:00:26;;;;;;;5.90;4.50;;;;;;;;;;5117844;27;20075;-89
2023/10/20 06:02:52;;;;;;;7.80;5.45;;;;;;;;;;5122964;27;20047;-90
2023/10/20 06:05:19;;;;;;;9.32;5.20;;;;;;;;;;5082338;27;20067;-88
2023/10/20 06:07:45;;;;;;;5.03;4.53;;;;;;;;;;5097294;28;20086;-89
2023/10/20 06:10:11;;;;;;;8.38;4.22;;;;;;;;;;5097418;28;20046;-89
2023/10/20 06:12:38;;;;;;;8.68;4.40;;;;;;;;;;5112452;28;20243;-82
2023/10/20 06:15:06;;;;;;;7.03;4.07;;;;;;;;;;5095146;27;20051;-85
2023/10/20 06:17:33;;;;;;;5.22;4.47;;;;;;;;;;5098170;28;20402;-83
2023/10/20 06:20:05;;;;;;;5.57;4.03;;;;;;;;;;5095126;28;20122;-86
2023/10/20 06:22:31;;;;;;;6.65;4.07;;;;;;;;;;5080501;28;20050;-83
2023/10/20 06:24:59;;;;;;;3.97;2.85;;;;;;;;;;5096992;28;20048;-86
2023/10/20 06:27:25;;;;;;;5.85;3.40;;;;;;;;;;5117102;27;20127;-84
2023/10/20 06:30:41;;;;;;;4.60;3.88;;;;;;;;;;5087978;28;20515;-81
2023/10/20 06:32:47;;;;;;;4.25;3.35;;;;;;;;;;5082144;28;20064;-84
2023/10/20 06:35:14;;;;;;;5.07;3.67;;;;;;;;;;5106058;27;20122;-83
2023/10/20 06:38:01;;;;;;;4.47;2.75;;;8.00;84.30;;;;;;5116797;27;20336;-85
2023/10/20 06:40:27;;;;;;;3.35;2.63;;;;;;;;;;5121666;27;20050;-85
2023/10/20 06:42:53;;;;;;;11.27;3.08;;;;;;;;;;5076511;28;20444;-82
2023/10/20 06:45:19;;;;;;;6.10;2.90;;;;;;;;;;5082475;27;20054;-84
2023/10/20 06:47:46;;;;;;;6.03;2.95;;;;;;;;;;5096755;28;20040;-83
2023/10/20 06:50:12;;;;;;;4.65;2.60;;;;;;;;;;5096109;28;20058;-85
2023/10/20 06:52:38;;;;;;;3.90;2.70;;;;;;;;;;5122935;27;20075;-85
2023/10/20 06:55:05;;;;;;;6.93;2.85;;;;;;;;;;5117181;27;20506;-85
2023/10/20 06:57:31;;;;;;;3.80;3.45;;;;;;;;;;5116842;27;20039;-84
2023/10/20 06:59:57;;;;;;;4.00;2.60;;;;;;;;;;5113982;27;20502;-84
2023/10/20 07:02:23;;;;;;;4.53;3.22;;;;;;;;;;5099159;27;20488;-86
2023/10/20 07:04:49;;;;;;;6.28;3.00;;;;;;;;;;5093231;28;20051;-85
2023/10/20 07:07:17;;;;;;;3.03;2.70;;;;;;;;;;5095171;28;20520;-87
2023/10/20 07:09:44;;;;;;;5.82;3.17;;;;;;;;;;5064631;28;20122;-87
2023/10/20 07:12:10;;;;;;;9.13;2.92;;;;;;;;;;5065330;28;20083;-82
2023/10/20 07:14:38;;;;;;;3.40;3.10;;;;;;;;;;5084629;28;20130;-85
2023/10/20 07:17:06;;;;;;;5.28;3.72;;;;;;;;;;5081928;28;20093;-85
2023/10/20 07:19:36;;;;;;;4.55;3.30;;;;;;;;;;5082822;28;20105;-83
2023/10/20 07:22:02;;;;;;;3.38;2.90;;;8.00;85.50;;;;;;5063843;28;20039;-83
2023/10/20 07:24:29;;;;;;;3.70;2.63;;;;;;;;;;5081820;28;20075;-82
2023/10/20 07:26:55;;;;;;;3.55;2.83;;;;;;;;;;5066374;28;20039;-83
2023/10/20 07:29:21;;;;;;;5.68;3.15;;;;;;;;;;5078568;28;20402;-87
2023/10/20 07:31:47;;;;;;;5.60;2.58;;;;;;;;;;5082619;28;20038;-87
2023/10/20 07:34:14;;;;;;;3.30;2.90;;;;;;;;;;5083953;28;20093;-87
2023/10/20 07:36:41;;;;;;;3.08;2.58;;;;;;;;;;5086985;28;20338;-84
2023/10/20 07:39:08;;;;;;;4.80;2.80;;;;;;;;;;5096398;28;20083;-87
2023/10/20 07:41:35;;;;;;;3.55;2.75;;;;;;;;;;5094521;28;20067;-86
2023/10/20 07:44:02;;;;;;;8.07;2.72;;;;;;;;;;5084245;28;20100;-86
2023/10/20 07:46:28;;;;;;;3.60;2.40;;;;;;;;;;5094846;28;20050;-89
2023/10/20 07:48:54;;;;;;;3.53;2.50;;;;;;;;;;5096287;27;20035;-87
2023/10/20 07:51:21;;;;;;;4.95;3.60;;;;;;;;;;5092264;28;20079;-87
2023/10/20 07:53:47;;;;;;;5.45;2.63;;;;;;;;;;5066557;28;20043;-85
2023/10/20 07:56:13;;;;;;;2.10;1.90;;;;;;;;;;5083150;28;20515;-87
2023/10/20 07:58:40;;;;;;;2.47;2.28;;;;;;;;;;5066300;28;20088;-87
2023/10/20 08:01:06;;;;;;;2.97;2.10;;;;;;;;;;5067052;28;20048;-87
2023/10/20 08:03:32;;;;;;;7.10;2.80;;;;;;;;;;5050741;28;20095;-81
2023/10/20 08:06:02;;;;;;;3.90;3.38;;;;;;;;;;5050347;28;20412;-86
2023/10/20 08:08:29;;;;;;;4.65;2.83;;;;;;;;;;5084568;28;20099;-86
2023/10/20 08:10:55;;;;;;;3.55;2.88;;;;;;;;;;5084211;28;20054;-88
2023/10/20 08:13:21;;;;;;;2.80;2.50;;;;;;;;;;5066657;28;20042;-84
2023/10/20 08:15:47;;;;;;;3.60;2.58;;;;;;;;;;5049445;28;20527;-83
2023/10/20 08:18:14;;;;;;;3.60;2.95;;;;;;;;;;5094291;28;20100;-80
2023/10/20 08:20:40;;;;;;;2.75;2.53;;;;;;;;;;5065817;28;20047;-83
2023/10/20 08:23:06;;;;;;;3.28;2.65;;;;;;;;;;5100975;28;20040;-82
2023/10/20 08:25:32;;;;;;;3.38;2.85;;;;;;;;;;5082665;28;20631;-83
2023/10/20 08:27:58;;;;;;;2.35;2.13;;;;;;;;;;5068895;28;20408;-87
2023/10/20 08:30:24;;;;;;;3.10;2.50;;;;;;;;;;5060115;28;20134;-87
2023/10/20 08:32:50;;;;;;;2.63;2.42;;;;;;;;;;5062415;28;20043;-86
2023/10/20 08:35:16;;;;;;;3.20;2.38;;;;;;;;;;5080599;28;20032;-86
2023/10/20 08:37:42;;;;;;;1.92;1.73;;;;;;;;;;5063501;28;20146;-86
2023/10/20 08:40:12;;;;;;;2.75;2.42;;;;;;;;;;5054038;28;20039;-87
2023/10/20 08:42:39;;;;;;;2.70;1.95;;;;;;;;;;5087785;28;20138;-84
2023/10/20 08:45:08;;;;;;;4.05;2.33;;;;;;;;;;5065037;28;20043;-82
2023/10/20 08:47:34;;;;;;;2.55;2.35;;;;;;;;;;5098160;28;20081;-84
2023/10/20 08:50:00;;;;;;;2.85;1.63;;;;;;;;;;5058259;28;20036;-81
2023/10/20 08:52:27;;;;;;;5.07;2.45;;;;;;;;;;5077713;28;20136;-87
2023/10/20 08:54:53;;;;;;;6.35;1.88;;;;;;;;;;5082567;28;20048;-83
2023/10/20 08:57:19;;;;;;;2.10;1.52;;;;;;;;;;5080750;28;20403;-82
2023/10/20 08:59:52;;;;;;;3.03;2.22;;;;;;;;;;5065414;28;20054;-86
2023/10/20 09:02:18;;;;;;;4.10;2.20;;;;;;;;;;5088485;28;20044;-84
2023/10/20 09:04:50;;;;;;;3.47;1.70;;;;;;;;;;5059471;28;20143;-88
2023/10/20 09:07:16;;;;;;;4.70;2.03;;;;;;;;;;5092891;28;20049;-85
2023/10/20 09:09:43;;;;;;;2.30;1.67;;;;;;;;;;5096085;28;20122;-84
2023/10/20 09:12:09;;;;;;;3.55;1.63;;;;;;;;;;5076654;28;20431;-87
2023/10/20 09:14:39;;;;;;;2.33;1.75;;;;;;;;;;5068185;28;20051;-86
2023/10/20 09:17:05;;;;;;;2.75;2.10;;;;;;;;;;5098836;28;20062;-84
2023/10/20 09:19:31;;;;;;;2.20;1.77;;;;;;;;;;5065380;28;20039;-86
2023/10/20 09:21:57;;;;;;;1.70;1.42;;;;;;;;;;5094585;28;20044;-90
2023/10/20 09:24:28;;;;;;;1.80;1.50;;;;;;;;;;5066627;28;20047;-89
2023/10/20 09:26:56;;;;;;;3.35;1.67;;;;;;;;;;5078408;28;20391;-89
2023/10/20 09:29:23;;;;;;;2.03;1.50;;;;;;;;;;5097615;28;20651;-89
2023/10/20 09:31:49;;;;;;;1.38;1.27;;;;;;;;;;5098212;28;20044;-90
2023/10/20 09:34:15;;;;;;;1.80;1.38;;;;;;;;;;5082272;28;20036;-88
2023/10/20 09:36:45;;;;;;;1.63;1.52;;;;;;;;;;5081993;28;20047;-81
2023/10/20 09:39:16;;;;;;;3.67;1.50;;;;;;;;;;5101426;28;20054;-81
2023/10/20 09:41:51;;;;;;;1.65;1.30;;;;;;;;;;5101305;28;20053;-85
2023/10/20 09:44:32;;;;;;;1.85;1.45;;;;;;;;;;5084741;28;20039;-83
2023/10/20 09:47:07;;;;;;;2.97;1.67;;;;;;;;;;5078742;28;20499;-82
2023/10/20 09:49:38;;;;;;;1.92;1.30;;;;;;;;;;5070298;28;20089;-84
2023/10/20 09:52:06;;;;;;;1.85;1.50;;;;;;;;;;5083233;28;20511;-84
2023/10/20 09:54:33;;;;;;;1.17;1.10;;;;;;;;;;5085219;28;20174;-81
2023/10/20 09:57:00;;;;;;;1.25;1.10;;;;;;;;;;5082720;28;20073;-82
2023/10/20 09:59:30;;;;;;;1.80;1.67;;;;;;;;;;5086316;27;20050;-82
2023/10/20 10:01:57;;;;;;;1.50;1.13;;;;;;;;;;5095474;27;20396;-84
2023/10/20 10:04:28;;;;;;;1.52;1.27;;;;;;;;;;5102753;27;20766;-83
2023/10/20 10:06:58;;;;;;;0.93;0.93;;;;;;;;;;5087480;27;20048;-86
2023/10/20 10:09:35;;;;;;;3.80;1.48;;;;;;;;;;5105572;27;20043;-83
2023/10/20 10:12:07;;;;;;;1.17;1.10;;;;;;;;;;5086872;27;20039;-86
2023/10/20 10:14:33;;;;;;;1.77;1.20;;;;;;;;;;5087807;27;20051;-82
2023/10/20 10:17:10;;;;;;;1.85;1.17;;;;;;;;;;5090813;27;20492;-83
2023/10/20 10:19:36;;;;;;;1.50;1.40;;;;;;;;;;5088843;27;20043;-82
2023/10/20 10:22:04;;;;;;;1.83;1.27;;;;;;;;;;5088880;27;20042;-81
2023/10/20 10:24:39;;;;;;;3.05;1.10;;;;;;;;;;5088487;27;20134;-88
2023/10/20 10:27:06;;;;;;;1.00;1.00;;;;;;;;;;5086065;27;20046;-84
2023/10/20 10:29:53;;;;;;;1.35;1.20;;;7.40;80.30;;;;;;5075896;27;20051;-81
2023/10/20 10:32:19;;;;;;;1.17;1.08;;;;;;;;;;5094779;27;20074;-86
2023/10/20 10:34:47;;;;;;;0.80;0.80;;;;;;;;;;5110688;27;20039;-84
2023/10/20 10:37:14;;;;;;;1.42;1.33;;;;;;;;;;5109631;27;20062;-83
2023/10/20 10:39:40;;;;;;;1.33;1.23;;;;;;;;;;5089199;27;20809;-84
2023/10/20 10:42:06;;;;;;;1.17;0.95;;;;;;;;;;5085562;27;20051;-86
2023/10/20 10:44:36;;;;;;;1.30;0.90;;;;;;;;;;5087692;27;20039;-80
2023/10/20 10:47:06;;;;;;;0.90;0.80;;;;;;;;;;5088523;27;20047;-85
2023/10/20 10:49:32;;;;;;;1.70;1.00;;;;;;;;;;5088594;27;20479;-86
2023/10/20 10:52:07;;;;;;;1.27;1.17;;;;;;;;;;5106128;27;20039;-86
2023/10/20 10:54:34;;;;;;;1.38;0.80;;;;;;;;;;5089262;27;20047;-81
2023/10/20 10:57:02;;;;;;;2.05;1.15;;;;;;;;;;5088514;27;20506;-89
2023/10/20 10:59:29;;;;;;;2.92;1.42;;;;;;;;;;5106383;27;20046;-82
2023/10/20 11:01:56;;;;;;;1.45;1.08;;;;;;;;;;5070073;27;20443;-90
2023/10/20 11:04:22;;;;;;;0.80;0.80;;;;;;;;;;5087349;27;20035;-86
2023/10/20 11:06:48;;;;;;;0.77;0.77;;;;;;;;;;5078851;27;20040;-82
2023/10/20 11:09:22;;;;;;;1.15;1.05;;;;;;;;;;5068018;27;20067;-85
2023/10/20 11:11:58;;;;;;;0.70;0.70;;;;;;;;;;5096285;27;20125;-94
2023/10/20 11:17:49;;;;;;;1.83;1.20;;;;;;;;;;5127263;27;20076;-85
2023/10/20 11:20:27;;;;;;;0.77;0.73;;;;;;;;;;5114290;27;20038;-90
2023/10/20 11:22:53;;;;;;;0.70;0.70;;;;;;;;;;5104524;27;20043;-87
2023/10/20 11:25:21;;;;;;;2.17;1.08;;;;;;;;;;5119634;27;20060;-84
2023/10/20 11:27:57;;;;;;;0.95;0.80;;;;;;;;;;5088011;27;20305;-89
2023/10/20 11:30:37;;;;;;;3.30;0.85;;;;;;;;;;5086479;27;20050;-87
2023/10/20 11:33:26;;;;;;;1.00;0.85;;;;;;;;;;5119327;27;20043;-84
2023/10/20 11:35:59;;;;;;;0.80;0.80;;;;;;;;;;5098109;27;20051;-85
2023/10/20 11:38:27;;;;;;;1.08;0.90;;;;;;;;;;5087095;28;20055;-86
2023/10/20 11:40:53;;;;;;;0.80;0.73;;;;;;;;;;5103577;28;20052;-92
2023/10/20 11:43:20;;;;;;;1.30;1.10;;;;;;;;;;5085486;28;20500;-85
2023/10/20 11:45:46;;;;;;;1.02;1.02;;;;;;;;;;5065094;28;20083;-89
2023/10/20 11:48:13;;;;;;;0.90;0.90;;;;;;;;;;5101969;27;20083;-86
2023/10/20 11:50:39;;;;;;;0.60;0.60;;;;;;;;;;5083527;28;20058;-84
2023/10/20 11:53:29;;;;;;;1.60;0.88;;;;;;;;;;5078120;28;20043;-89
2023/10/20 11:56:00;;;;;;;1.75;0.85;;;;;;;;;;5076794;28;20040;-84
2023/10/20 11:58:26;;;;;;;0.63;0.63;;;;;;;;;;5101346;28;20110;-86
2023/10/20 12:00:53;;;;;;;1.20;1.00;;;;;;;;;;5068860;28;20571;-85
2023/10/20 12:03:23;;;;;;;1.58;0.90;;;;;;;;;;5080307;28;20717;-90
2023/10/20 12:05:50;;;;;;;3.00;0.90;;;;;;;;;;5051394;28;20047;-89
2023/10/20 12:08:17;;;;;;;0.70;0.70;;;;;;;;;;5084896;28;20508;-85
2023/10/20 12:10:44;;;;;;;1.17;0.80;;;;;;;;;;5066673;28;20497;-85
2023/10/20 12:13:13;;;;;;;1.75;0.95;;;;;;;;;;5045062;28;20031;-88
2023/10/20 12:15:43;;;;;;;1.60;1.02;;;;;;;;;;5079142;28;20077;-89
2023/10/20 12:18:13;;;;;;;0.90;0.90;;;;;;;;;;5085034;28;20448;-93
2023/10/20 12:20:42;;;;;;;1.08;1.02;;;;;;;;;;5059870;28;20047;-86
2023/10/20 12:23:17;;;;;;;0.93;0.90;;;;;;;;;;5079351;28;20043;-88
2023/10/20 12:32:16;;;;;;;0.95;0.88;;;;;;;;;;5023100;28;20260;-88
2023/10/20 12:34:45;;;;;;;0.98;0.90;;;;;;;;;;5084182;28;20173;-95
2023/10/20 12:37:13;;;;;;;0.82;0.82;;;;;;;;;;5094382;28;20051;-93
2023/10/20 12:39:39;;;;;;;0.95;0.70;;;;;;;;;;5077669;28;20135;-89
2023/10/20 12:42:05;;;;;;;0.80;0.80;;;;;;;;;;5036613;28;20047;-89
2023/10/20 12:44:33;;;;;;;0.80;0.80;;;;;;;;;;5062538;28;20052;-89
2023/10/20 12:47:00;;;;;;;1.15;1.05;;;;;;;;;;5059464;28;20051;-85
2023/10/20 12:49:26;;;;;;;0.77;0.77;;;;;;;;;;5037575;28;20044;-87
2023/10/20 12:51:52;;;;;;;0.90;0.80;;;;;;;;;;5079843;28;20044;-88
2023/10/20 12:54:18;;;;;;;1.17;0.95;;;;;;;;;;5039287;28;20028;-87
2023/10/20 12:56:44;;;;;;;3.80;0.93;;;;;;;;;;5068043;28;20051;-86
2023/10/20 12:59:10;;;;;;;1.98;0.90;;;;;;;;;;5066414;28;20286;-85
2023/10/20 13:01:36;;;;;;;1.73;1.00;;;;;;;;;;5062358;28;20031;-88
2023/10/20 13:04:02;;;;;;;0.63;0.63;;;;;;;;;;5056470;28;20500;-86
2023/10/20 13:06:29;;;;;;;0.70;0.70;;;;;;;;;;5064743;28;20127;-86
2023/10/20 13:08:55;;;;;;;0.85;0.70;;;;;;;;;;5049609;28;20726;-86
2023/10/20 13:11:21;;;;;;;0.85;0.77;;;;;;;;;;5094866;28;20127;-85
2023/10/20 13:13:48;;;;;;;0.60;0.60;;;;;;;;;;5089956;28;20085;-89
2023/10/20 13:16:14;;;;;;;1.40;0.90;;;;;;;;;;5072858;28;20046;-86
2023/10/20 13:18:40;;;;;;;0.65;0.65;;;;;;;;;;5092123;28;20585;-94
2023/10/20 13:21:06;;;;;;;0.77;0.77;;;;;;;;;;5082537;28;20046;-95
2023/10/20 13:23:37;;;;;;;0.77;0.73;;;;;;;;;;5103088;28;20488;-95
2023/10/20 13:26:39;;;;;;;0.70;0.70;;;;;;;;;;5102854;28;20065;-91
2023/10/20 13:29:05;;;;;;;2.47;0.75;;;;;;;;;;5071553;28;20147;-92
2023/10/20 13:31:33;;;;;;;2.78;1.45;;;;;;;;;;5083479;28;20044;-92
2023/10/20 13:34:00;;;;;;;3.60;2.40;;;;;;;;;;5068961;28;20089;-95
2023/10/20 13:36:27;;;;;;;1.30;1.20;;;;;;;;;;5071648;28;20099;-96
2023/10/20 13:38:53;;;;;;;2.25;1.65;;;;;;;;;;5069890;28;20121;-91
2023/10/20 13:41:19;;;;;;;1.73;1.63;;;;;;;;;;5083950;28;20071;-92
2023/10/20 13:43:46;;;;;;;0.70;0.70;;;;;;;;;;5049689;28;20059;-91
2023/10/20 13:46:12;;;;;;;0.60;0.60;;;;;;;;;;5088850;28;20089;-92
2023/10/20 13:48:38;;;;;;;0.90;0.90;;;;;;;;;;5087008;28;20036;-91
2023/10/20 13:51:05;;;;;;;0.93;0.88;;;;;;;;;;5070941;28;20040;-91
2023/10/20 13:53:31;;;;;;;2.28;1.45;;;;;;;;;;5051911;28;20556;-84
2023/10/20 13:55:57;;;;;;;1.42;1.20;;;;;;;;;;5063563;28;20047;-84
2023/10/20 13:58:24;;;;;;;1.23;1.10;;;;;;;;;;5063313;28;20039;-89
2023/10/20 14:00:51;;;;;;;1.08;1.00;;;;;;;;;;5069407;28;20672;-87
2023/10/20 14:03:17;;;;;;;1.27;1.17;;;;;;;;;;5051842;28;20411;-87
2023/10/20 14:05:51;;;;;;;0.88;0.88;;;;;;;;;;5068612;28;20043;-88
2023/10/20 14:08:17;;;;;;;1.85;1.13;;;;;;;;;;5063220;28;20047;-86
2023/10/20 14:10:44;;;;;;;1.55;1.45;;;;;;;;;;5051509;28;20048;-86
2023/10/20 14:13:10;;;;;;;1.65;1.55;;;;;;;;;;5052238;28;20488;-87
2023/10/20 14:15:36;;;;;;;4.25;2.65;;;;;;;;;;5066215;28;20044;-83
2023/10/20 14:18:02;;;;;;;2.63;1.35;;;;;;;;;;5051273;28;20119;-85
2023/10/20 14:20:31;;;;;;;1.27;1.00;;;;;;;;;;5069874;28;20062;-91
2023/10/20 14:22:57;;;;;;;1.33;1.17;;;;;;;;;;5103525;28;20052;-84
2023/10/20 14:25:23;;;;;;;1.90;1.15;;;;;;;;;;5068288;28;20044;-90
2023/10/20 14:27:49;;;;;;;1.52;1.40;;;;;;;;;;5082709;28;20048;-91
2023/10/20 14:30:15;;;;;;;1.13;1.00;;;;;;;;;;5067777;28;20100;-89
2023/10/20 14:32:41;;;;;;;2.28;1.60;;;;;;;;;;5085157;28;20861;-86
2023/10/20 14:35:07;;;;;;;1.85;1.50;;;;;;;;;;5068015;28;20485;-88
2023/10/20 14:37:33;;;;;;;2.42;1.05;;;;;;;;;;5067964;28;20051;-89
2023/10/20 14:39:59;;;;;;;0.88;0.88;;;;;;;;;;5068061;28;20057;-84
2023/10/20 14:42:26;;;;;;;1.42;1.33;;;;;;;;;;5065767;28;20040;-87
2023/10/20 14:44:52;;;;;;;1.10;0.90;;;;;;;;;;5066770;28;20047;-84
2023/10/20 14:47:18;;;;;;;0.82;0.82;;;;;;;;;;5046520;28;20134;-85
2023/10/20 14:49:44;;;;;;;0.80;0.80;;;;;;;;;;5065164;28;20051;-88
2023/10/20 14:52:12;;;;;;;2.03;0.95;;;;;;;;;;5042668;28;20036;-89
2023/10/20 14:54:40;;;;;;;1.20;1.10;;;;;;;;;;5077986;28;20127;-87
2023/10/20 14:57:07;;;;;;;10.38;1.02;;;;;;;;;;5052396;28;20089;-88
2023/10/20 14:59:34;;;;;;;0.95;0.80;;;;;;;;;;5096252;28;20058;-89
2023/10/20 15:02:01;;;;;;;0.70;0.70;;;;;;;;;;5077674;28;20157;-89
2023/10/20 15:04:32;;;;;;;0.77;0.77;;;;;;;;;;5065845;28;20522;-94
2023/10/20 15:10:50;;;;;;;;;;;;;;;;;;;;;
2023/10/20 15:19:29;;;;;;;1.52;1.30;;;;;;;;;;5087521;28;20055;-95
2023/10/20 15:21:55;;;;;;;1.23;1.13;;;;;;;;;;5079735;28;20043;-92
2023/10/20 15:24:24;;;;;;;2.47;1.38;;;;;;;;;;5094401;28;20031;-94
2023/10/20 15:30:38;;;;;;;1.00;1.00;;;;;;;;;;5102001;28;20162;-94
2023/10/20 15:33:04;;;;;;;1.45;1.17;;;;;;;;;;5085328;28;20488;-94